Time;durP1;ratioP1;P1;durP2;ratioP2;P2;SDS_P1;SDS_P2;PMS_P1;PMS_P2;Temp;Humidity;BMP_temperature;BMP_pressure;BME280_temperature;BME280_humidity;BME280_pressure;Samples;Min_cycle;Max_cycle;Signal;HPM_P1;HPM_P2
2022/08/20 00:02:14;;;;;;;14.88;5.38;;;27.20;69.60;;;;;;5013129;28;20850;-75
2022/08/20 00:04:44;;;;;;;9.70;5.05;;;27.10;69.60;;;;;;5012383;28;20283;-76
2022/08/20 00:07:13;;;;;;;6.97;5.07;;;27.10;69.60;;;;;;5012893;28;20774;-76
2022/08/20 00:09:43;;;;;;;13.20;5.15;;;27.10;69.60;;;;;;5013422;28;20195;-75
2022/08/20 00:12:16;;;;;;;10.40;4.25;;;27.10;69.90;;;;;;5020824;28;20831;-75
2022/08/20 00:14:44;;;;;;;13.57;5.05;;;27.00;69.80;;;;;;5020784;28;20200;-75
2022/08/20 00:17:12;;;;;;;14.65;4.78;;;27.00;69.90;;;;;;5019571;28;20291;-76
2022/08/20 00:19:41;;;;;;;10.40;4.90;;;27.00;69.90;;;;;;5013758;28;20206;-75
2022/08/20 00:22:12;;;;;;;10.57;4.80;;;27.00;70.10;;;;;;5014367;28;20187;-75
2022/08/20 00:24:40;;;;;;;13.90;5.05;;;26.90;70.20;;;;;;5014519;28;20664;-76
2022/08/20 00:27:09;;;;;;;11.75;5.20;;;26.90;70.10;;;;;;5017794;28;20188;-76
2022/08/20 00:29:37;;;;;;;10.80;4.47;;;26.90;70.20;;;;;;5018890;28;20396;-75
2022/08/20 00:32:06;;;;;;;11.50;4.55;;;26.90;70.20;;;;;;5016415;28;20239;-75
2022/08/20 00:34:35;;;;;;;9.95;4.63;;;26.90;70.20;;;;;;5019817;28;20203;-76
2022/08/20 00:37:03;;;;;;;10.60;4.55;;;26.90;70.20;;;;;;5017223;28;20207;-75
2022/08/20 00:39:33;;;;;;;12.20;4.53;;;26.80;70.20;;;;;;5017722;28;20198;-75
2022/08/20 00:42:02;;;;;;;14.70;4.60;;;26.80;70.30;;;;;;5018325;28;20192;-75
2022/08/20 00:44:30;;;;;;;9.65;4.72;;;26.80;70.50;;;;;;5019988;28;20198;-75
2022/08/20 00:46:59;;;;;;;8.48;4.50;;;26.80;70.60;;;;;;5020224;28;20192;-74
2022/08/20 00:49:29;;;;;;;9.60;4.75;;;26.80;70.60;;;;;;5012221;28;20211;-75
2022/08/20 00:52:01;;;;;;;14.13;4.65;;;26.80;70.60;;;;;;5020823;28;20227;-75
2022/08/20 00:54:38;;;;;;;12.63;4.53;;;26.70;70.50;;;;;;5016516;28;20188;-75
2022/08/20 00:57:10;;;;;;;8.95;4.93;;;26.70;70.70;;;;;;5015636;28;20219;-75
2022/08/20 00:59:41;;;;;;;9.57;4.20;;;26.70;70.80;;;;;;5010698;28;20207;-75
2022/08/20 01:02:13;;;;;;;13.18;5.40;;;26.70;70.90;;;;;;5011233;28;20194;-74
2022/08/20 01:04:44;;;;;;;11.25;4.78;;;26.70;71.10;;;;;;5020101;28;20288;-75
2022/08/20 01:07:13;;;;;;;12.60;4.50;;;26.60;71.20;;;;;;5015796;28;20392;-75
2022/08/20 01:09:43;;;;;;;9.85;4.47;;;26.60;71.30;;;;;;5016644;28;20196;-74
2022/08/20 01:12:28;;;;;;;9.32;4.97;;;26.60;71.60;;;;;;5014804;28;20314;-74
2022/08/20 01:14:58;;;;;;;11.57;4.55;;;26.50;71.80;;;;;;5022527;28;20188;-75
2022/08/20 01:17:31;;;;;;;11.90;4.82;;;26.50;71.90;;;;;;5015616;28;20523;-75
2022/08/20 01:20:05;;;;;;;9.48;4.55;;;26.50;72.00;;;;;;5018680;28;20291;-75
2022/08/20 01:25:33;;;;;;;9.32;4.65;;;26.40;72.00;;;;;;5019257;28;20534;-75
2022/08/20 01:28:03;;;;;;;14.77;5.15;;;26.40;72.10;;;;;;5016705;28;20191;-76
2022/08/20 01:30:33;;;;;;;9.65;4.10;;;26.40;72.10;;;;;;5012918;28;20203;-76
2022/08/20 01:33:02;;;;;;;16.23;5.03;;;26.40;72.10;;;;;;5014774;28;20630;-75
2022/08/20 01:35:34;;;;;;;15.93;4.78;;;26.30;71.90;;;;;;5016867;28;20199;-75
2022/08/20 01:38:03;;;;;;;8.15;4.70;;;26.30;72.00;;;;;;5012362;28;20192;-75
2022/08/20 01:41:11;;;;;;;6.72;4.22;;;26.30;72.10;;;;;;5011201;28;20219;-76
2022/08/20 01:43:42;;;;;;;9.63;4.80;;;26.30;72.20;;;;;;4931311;28;20206;-76
2022/08/20 01:46:12;;;;;;;7.70;4.88;;;26.30;72.20;;;;;;4995512;28;20620;-76
2022/08/20 01:48:41;;;;;;;9.48;4.85;;;26.30;72.20;;;;;;5013837;28;20956;-75
2022/08/20 01:51:16;;;;;;;9.75;5.65;;;26.30;72.40;;;;;;5010153;28;20723;-75
2022/08/20 01:53:47;;;;;;;11.52;4.32;;;26.20;72.40;;;;;;5018687;28;20211;-75
2022/08/20 01:56:19;;;;;;;9.23;4.63;;;26.20;72.60;;;;;;5015184;28;20233;-75
2022/08/20 01:58:52;;;;;;;8.63;4.93;;;26.20;72.70;;;;;;5015763;28;20196;-75
2022/08/20 02:01:29;;;;;;;9.40;4.88;;;26.20;72.70;;;;;;5015488;28;20203;-76
2022/08/20 02:04:02;;;;;;;9.90;4.22;;;26.20;72.90;;;;;;5017912;28;20212;-75
2022/08/20 02:06:34;;;;;;;6.97;4.20;;;26.10;73.00;;;;;;5008344;28;20200;-75
2022/08/20 02:09:05;;;;;;;10.73;4.55;;;26.10;73.00;;;;;;5018929;28;20200;-75
2022/08/20 02:11:35;;;;;;;9.02;4.63;;;26.10;73.20;;;;;;5017859;28;20191;-75
2022/08/20 02:14:07;;;;;;;8.73;4.53;;;26.10;73.20;;;;;;5025168;28;20219;-75
2022/08/20 02:16:40;;;;;;;11.98;4.90;;;26.10;73.20;;;;;;5022100;28;20230;-75
2022/08/20 02:19:11;;;;;;;12.30;4.85;;;26.10;73.20;;;;;;5018562;28;20191;-75
2022/08/20 02:21:45;;;;;;;9.95;4.65;;;26.00;73.10;;;;;;5020947;28;20208;-75
2022/08/20 02:24:14;;;;;;;13.20;5.32;;;26.10;73.30;;;;;;5017589;28;20279;-74
2022/08/20 02:26:44;;;;;;;10.10;4.55;;;26.10;73.20;;;;;;5011247;28;20802;-74
2022/08/20 02:29:14;;;;;;;11.35;4.85;;;26.00;73.10;;;;;;5020385;28;20704;-75
2022/08/20 02:31:46;;;;;;;8.77;5.07;;;26.00;73.20;;;;;;5020166;28;20195;-76
2022/08/20 02:34:35;;;;;;;12.65;5.00;;;26.00;73.20;;;;;;5017562;28;20292;-75
2022/08/20 02:37:05;;;;;;;10.95;4.80;;;26.00;73.10;;;;;;5021386;28;20716;-75
2022/08/20 02:39:34;;;;;;;9.40;5.22;;;26.00;73.20;;;;;;5015766;28;20721;-75
2022/08/20 02:42:04;;;;;;;8.70;4.80;;;26.00;73.20;;;;;;5018933;28;20349;-76
2022/08/20 02:44:34;;;;;;;9.00;4.60;;;26.00;73.30;;;;;;5022337;28;20558;-75
2022/08/20 02:47:02;;;;;;;9.75;4.85;;;26.00;73.30;;;;;;5023647;28;20806;-76
2022/08/20 02:49:31;;;;;;;8.80;5.07;;;26.00;73.30;;;;;;5021160;28;20204;-75
2022/08/20 02:51:59;;;;;;;6.30;4.32;;;26.00;73.50;;;;;;5021166;28;20677;-76
2022/08/20 02:54:28;;;;;;;7.60;4.78;;;25.90;73.60;;;;;;5016381;28;20239;-75
2022/08/20 02:56:57;;;;;;;9.90;5.32;;;25.90;73.80;;;;;;5023611;28;20220;-78
2022/08/20 02:59:25;;;;;;;11.15;4.80;;;25.90;73.80;;;;;;5020116;28;20706;-76
2022/08/20 03:01:55;;;;;;;16.25;5.38;;;25.80;73.70;;;;;;5018547;28;20720;-76
2022/08/20 03:04:29;;;;;;;8.50;5.30;;;25.80;73.80;;;;;;5018251;28;20191;-76
2022/08/20 03:06:58;;;;;;;8.23;5.03;;;25.80;73.80;;;;;;5020318;28;20207;-75
2022/08/20 03:09:27;;;;;;;10.25;5.50;;;25.80;73.90;;;;;;5017584;28;20191;-75
2022/08/20 03:11:55;;;;;;;8.73;5.00;;;25.80;74.00;;;;;;5016616;28;20199;-76
2022/08/20 03:14:24;;;;;;;7.55;5.13;;;25.80;74.00;;;;;;5021879;28;20219;-75
2022/08/20 03:16:52;;;;;;;10.07;5.15;;;25.80;74.00;;;;;;5019386;28;20191;-75
2022/08/20 03:19:22;;;;;;;10.25;4.93;;;25.80;74.00;;;;;;5022618;28;20215;-75
2022/08/20 03:21:51;;;;;;;11.40;6.78;;;25.80;74.10;;;;;;5018558;28;20820;-76
2022/08/20 03:24:20;;;;;;;10.18;5.43;;;25.80;75.60;;;;;;5016198;28;20196;-76
2022/08/20 03:26:48;;;;;;;8.60;5.05;;;25.70;75.50;;;;;;5019612;28;20199;-76
2022/08/20 03:29:16;;;;;;;7.55;5.55;;;25.70;75.40;;;;;;5020080;28;20196;-76
2022/08/20 03:31:45;;;;;;;9.98;5.53;;;25.70;75.60;;;;;;5021223;28;20943;-75
2022/08/20 03:34:14;;;;;;;11.25;5.97;;;25.60;75.70;;;;;;5020037;28;20227;-76
2022/08/20 03:36:44;;;;;;;9.93;5.65;;;25.60;75.90;;;;;;5017852;28;20364;-76
2022/08/20 03:39:12;;;;;;;10.50;6.40;;;25.60;76.20;;;;;;5022321;28;20649;-75
2022/08/20 03:41:40;;;;;;;9.75;5.35;;;25.50;76.50;;;;;;5017481;28;20196;-75
2022/08/20 03:44:09;;;;;;;8.38;5.80;;;25.50;76.70;;;;;;5016258;28;20202;-75
2022/08/20 03:46:39;;;;;;;13.40;6.28;;;25.50;77.20;;;;;;5019244;28;20849;-75
2022/08/20 03:49:07;;;;;;;8.68;5.53;;;25.40;77.40;;;;;;5013434;28;20192;-75
2022/08/20 03:51:35;;;;;;;10.43;5.47;;;25.40;77.70;;;;;;5020224;28;20200;-75
2022/08/20 03:54:26;;;;;;;10.77;6.68;;;25.40;77.80;;;;;;5018632;28;20666;-76
2022/08/20 03:57:01;;;;;;;16.75;6.90;;;25.40;77.80;;;;;;5017547;28;20223;-77
2022/08/20 03:59:39;;;;;;;12.75;6.30;;;25.30;78.00;;;;;;5020293;28;20230;-77
2022/08/20 04:02:08;;;;;;;13.45;6.43;;;25.30;78.10;;;;;;5019680;28;20196;-75
2022/08/20 04:04:36;;;;;;;9.52;6.35;;;25.30;78.40;;;;;;5019609;28;20279;-75
2022/08/20 04:07:10;;;;;;;10.30;5.80;;;25.30;78.50;;;;;;5017649;28;20191;-77
2022/08/20 04:09:42;;;;;;;15.88;6.40;;;25.30;79.30;;;;;;5017161;28;20199;-76
2022/08/20 04:12:12;;;;;;;9.10;6.40;;;25.30;79.40;;;;;;5007489;28;20291;-77
2022/08/20 04:14:40;;;;;;;8.98;6.50;;;25.30;79.50;;;;;;5020162;28;20220;-75
2022/08/20 04:17:11;;;;;;;10.07;6.18;;;25.30;79.50;;;;;;5011766;28;20222;-76
2022/08/20 04:19:41;;;;;;;11.85;5.90;;;25.30;79.60;;;;;;5020985;28;20203;-76
2022/08/20 04:22:12;;;;;;;10.70;6.47;;;25.40;79.60;;;;;;5019115;28;20200;-76
2022/08/20 04:24:42;;;;;;;11.55;6.28;;;25.40;79.70;;;;;;5020981;28;20210;-76
2022/08/20 04:27:13;;;;;;;8.98;6.47;;;25.40;79.60;;;;;;5020705;28;20192;-76
2022/08/20 04:29:43;;;;;;;13.77;6.53;;;25.40;79.80;;;;;;5022492;28;20199;-74
2022/08/20 04:32:11;;;;;;;10.52;6.07;;;25.50;79.70;;;;;;5019855;28;20203;-76
2022/08/20 04:34:40;;;;;;;11.23;6.43;;;25.40;79.80;;;;;;5020119;28;21038;-76
2022/08/20 04:37:10;;;;;;;8.63;6.22;;;25.50;79.80;;;;;;5012497;28;20271;-76
2022/08/20 04:40:52;;;;;;;10.25;6.32;;;25.50;79.70;;;;;;5019275;28;20191;-76
2022/08/20 04:42:35;;;;;;;13.25;5.70;;;25.60;79.70;;;;;;5020052;28;20200;-77
2022/08/20 04:45:07;;;;;;;14.10;6.97;;;25.60;79.50;;;;;;5015974;28;20206;-76
2022/08/20 04:47:35;;;;;;;13.25;5.72;;;25.60;79.40;;;;;;5015145;28;20196;-76
2022/08/20 04:50:08;;;;;;;12.38;6.32;;;25.70;79.40;;;;;;5020984;28;20200;-76
2022/08/20 04:52:37;;;;;;;10.35;5.95;;;25.70;79.40;;;;;;5005188;28;20211;-77
2022/08/20 04:55:09;;;;;;;19.10;6.18;;;25.70;79.30;;;;;;5022866;28;20215;-75
2022/08/20 04:57:45;;;;;;;7.47;5.65;;;25.80;79.30;;;;;;5012131;28;20234;-77
2022/08/20 05:00:17;;;;;;;13.15;5.82;;;25.90;79.20;;;;;;5022344;28;20730;-75
2022/08/20 05:02:45;;;;;;;12.43;5.55;;;25.90;79.10;;;;;;5021118;28;20192;-76
2022/08/20 05:05:14;;;;;;;14.45;6.00;;;26.00;79.10;;;;;;5017465;28;20326;-76
2022/08/20 05:07:45;;;;;;;10.55;6.15;;;26.00;79.10;;;;;;5019066;28;20645;-77
2022/08/20 05:10:18;;;;;;;9.68;5.60;;;26.00;79.00;;;;;;5013326;28;20205;-76
2022/08/20 05:12:46;;;;;;;10.15;5.40;;;26.10;78.90;;;;;;5018959;28;20202;-76
2022/08/20 05:15:24;;;;;;;12.63;6.28;;;26.10;78.90;;;;;;5019066;28;20571;-76
2022/08/20 05:17:59;;;;;;;9.18;5.47;;;26.10;78.80;;;;;;5015502;28;20204;-76
2022/08/20 05:20:30;;;;;;;16.80;6.15;;;26.20;78.70;;;;;;5010807;28;20601;-77
2022/08/20 05:22:58;;;;;;;15.68;7.18;;;26.30;78.80;;;;;;5013224;28;20196;-77
2022/08/20 05:25:29;;;;;;;12.20;6.38;;;26.30;78.70;;;;;;5011995;28;20202;-75
2022/08/20 05:27:59;;;;;;;13.75;6.22;;;26.40;78.70;;;;;;5016780;28;20191;-74
2022/08/20 05:30:32;;;;;;;11.15;6.20;;;26.40;78.70;;;;;;5010071;28;20180;-74
2022/08/20 05:33:02;;;;;;;11.00;5.47;;;26.50;78.80;;;;;;5017913;28;20192;-76
2022/08/20 05:35:33;;;;;;;14.43;5.30;;;26.50;78.70;;;;;;5012819;28;20222;-75
2022/08/20 05:38:02;;;;;;;8.43;4.90;;;26.60;78.60;;;;;;5016071;28;20298;-73
2022/08/20 05:40:32;;;;;;;12.00;4.47;;;26.60;77.80;;;;;;5016620;28;20198;-75
2022/08/20 05:43:03;;;;;;;7.40;3.90;;;26.70;77.60;;;;;;5017137;28;20199;-74
2022/08/20 05:45:36;;;;;;;9.80;3.72;;;26.80;77.00;;;;;;5013042;28;20196;-73
2022/08/20 05:48:05;;;;;;;10.02;4.50;;;26.80;76.40;;;;;;5005336;28;20866;-74
2022/08/20 05:50:34;;;;;;;5.38;3.65;;;26.90;76.30;;;;;;5017163;28;20277;-73
2022/08/20 05:53:03;;;;;;;10.73;3.72;;;27.00;76.10;;;;;;5018692;28;20214;-74
2022/08/20 05:55:33;;;;;;;8.70;3.90;;;27.10;76.00;;;;;;5016379;28;20234;-73
2022/08/20 05:58:04;;;;;;;8.00;3.90;;;27.20;76.00;;;;;;5026474;28;20922;-74
2022/08/20 06:00:34;;;;;;;7.97;3.88;;;27.20;75.40;;;;;;5035159;28;20700;-72
2022/08/20 06:05:49;;;;;;;10.23;4.25;;;27.30;74.40;;;;;;5037531;28;20840;-73
2022/08/20 06:08:18;;;;;;;12.20;4.20;;;27.40;74.50;;;;;;5032479;28;20230;-74
2022/08/20 06:10:47;;;;;;;12.05;3.85;;;27.50;74.50;;;;;;5041424;28;20850;-74
2022/08/20 06:13:16;;;;;;;7.18;3.63;;;27.60;74.20;;;;;;5039282;28;20198;-73
2022/08/20 06:15:44;;;;;;;11.00;4.13;;;27.60;74.00;;;;;;5040145;28;20214;-74
2022/08/20 06:18:13;;;;;;;9.30;3.85;;;27.70;73.60;;;;;;5033059;28;20200;-74
2022/08/20 06:20:56;;;;;;;9.70;4.22;;;27.80;73.50;;;;;;5030769;28;20928;-73
2022/08/20 06:23:25;;;;;;;12.40;4.20;;;27.80;73.20;;;;;;5036424;28;20257;-74
2022/08/20 06:25:54;;;;;;;9.52;3.97;;;27.90;73.00;;;;;;5036067;28;20188;-73
2022/08/20 06:28:23;;;;;;;6.03;3.70;;;28.00;72.90;;;;;;5036757;28;20310;-73
2022/08/20 06:30:52;;;;;;;9.55;4.35;;;28.00;72.60;;;;;;5027748;28;20195;-73
2022/08/20 06:33:20;;;;;;;5.88;4.05;;;28.10;72.20;;;;;;5036929;28;20200;-73
2022/08/20 06:35:49;;;;;;;8.80;4.00;;;28.20;72.20;;;;;;5040502;28;20274;-73
2022/08/20 06:38:17;;;;;;;6.82;3.47;;;28.20;72.00;;;;;;5028867;28;20200;-74
2022/08/20 06:40:46;;;;;;;5.30;4.05;;;28.30;72.00;;;;;;5040565;28;20187;-73
2022/08/20 06:43:16;;;;;;;8.63;3.72;;;28.30;71.80;;;;;;5042524;28;20195;-74
2022/08/20 06:45:44;;;;;;;10.23;3.88;;;28.40;71.90;;;;;;5040189;28;20700;-73
2022/08/20 06:48:16;;;;;;;5.78;3.40;;;28.40;71.70;;;;;;5032265;28;20200;-73
2022/08/20 06:50:47;;;;;;;9.30;4.20;;;28.50;71.60;;;;;;5026530;28;20188;-74
2022/08/20 06:53:18;;;;;;;16.52;4.30;;;28.60;71.30;;;;;;5036782;28;20199;-74
2022/08/20 06:55:48;;;;;;;9.18;3.70;;;28.70;71.10;;;;;;5045567;28;20272;-73
2022/08/20 06:58:19;;;;;;;9.95;4.20;;;28.70;70.80;;;;;;5041723;28;20223;-73
2022/08/20 07:01:04;;;;;;;10.90;4.18;;;28.80;70.80;;;;;;5039757;28;20192;-73
2022/08/20 07:03:38;;;;;;;9.05;4.13;;;28.90;70.70;;;;;;5042212;28;20191;-73
2022/08/20 07:06:09;;;;;;;7.35;4.00;;;28.90;70.50;;;;;;5046042;28;20191;-74
2022/08/20 07:08:39;;;;;;;9.57;4.60;;;29.00;70.50;;;;;;5048411;28;20191;-73
2022/08/20 07:11:07;;;;;;;14.93;5.68;;;29.10;70.00;;;;;;5050148;28;20213;-73
2022/08/20 07:13:37;;;;;;;7.00;3.78;;;29.10;69.80;;;;;;5038888;28;20203;-74
2022/08/20 07:16:06;;;;;;;8.07;3.95;;;29.10;69.50;;;;;;5040059;28;20215;-73
2022/08/20 07:18:35;;;;;;;9.32;4.32;;;29.20;69.40;;;;;;5039700;28;20199;-72
2022/08/20 07:21:03;;;;;;;8.02;4.05;;;29.20;69.30;;;;;;5041069;28;20692;-74
2022/08/20 07:23:32;;;;;;;11.98;4.05;;;29.30;69.30;;;;;;5034086;28;20195;-74
2022/08/20 07:26:01;;;;;;;6.70;3.50;;;29.30;69.10;;;;;;5041712;28;20288;-74
2022/08/20 07:28:30;;;;;;;8.48;3.90;;;29.40;68.90;;;;;;5042704;28;20285;-73
2022/08/20 07:33:48;;;;;;;8.15;3.75;;;29.50;68.50;;;;;;5029894;28;20191;-73
2022/08/20 07:36:19;;;;;;;8.80;3.92;;;29.60;67.70;;;;;;5038490;28;20266;-74
2022/08/20 07:38:51;;;;;;;10.18;3.97;;;29.60;67.80;;;;;;5039776;28;20656;-73
2022/08/20 07:41:20;;;;;;;10.45;4.65;;;29.60;68.00;;;;;;5041104;28;20253;-73
2022/08/20 07:43:49;;;;;;;16.38;4.20;;;29.70;68.20;;;;;;5037185;28;20203;-74
2022/08/20 07:46:21;;;;;;;6.35;3.50;;;29.70;67.80;;;;;;5040512;28;20234;-74
2022/08/20 07:48:50;;;;;;;9.38;3.50;;;29.80;67.80;;;;;;5042604;28;20190;-75
2022/08/20 07:51:21;;;;;;;10.05;3.58;;;29.80;67.50;;;;;;5039352;28;20218;-75
2022/08/20 07:53:50;;;;;;;9.40;3.97;;;29.90;67.20;;;;;;5043705;28;20195;-74
2022/08/20 07:56:22;;;;;;;8.93;3.88;;;29.90;67.00;;;;;;5034558;28;20223;-74
2022/08/20 07:58:55;;;;;;;8.10;3.80;;;30.00;66.90;;;;;;5035282;28;20195;-74
2022/08/20 08:01:28;;;;;;;8.50;3.75;;;30.00;66.60;;;;;;5039190;28;20532;-77
2022/08/20 08:03:57;;;;;;;12.18;4.10;;;30.10;66.10;;;;;;5040629;28;20195;-74
2022/08/20 08:06:28;;;;;;;11.75;4.28;;;30.10;65.20;;;;;;5039502;28;20195;-75
2022/08/20 08:09:09;;;;;;;9.50;3.75;;;30.20;65.50;;;;;;5030285;28;20279;-75
2022/08/20 08:11:40;;;;;;;11.90;4.25;;;30.20;65.10;;;;;;5043306;28;20822;-74
2022/08/20 08:14:16;;;;;;;8.30;3.70;;;30.30;65.10;;;;;;5036398;28;20303;-74
2022/08/20 08:16:46;;;;;;;7.30;3.38;;;30.30;64.90;;;;;;5035829;28;20207;-76
2022/08/20 08:19:16;;;;;;;8.88;3.38;;;30.40;65.00;;;;;;5037539;28;20199;-74
2022/08/20 08:21:45;;;;;;;13.95;4.00;;;30.40;64.40;;;;;;5038851;28;20190;-75
2022/08/20 08:24:14;;;;;;;7.30;3.45;;;30.50;64.70;;;;;;5040291;28;21013;-74
2022/08/20 08:26:49;;;;;;;12.18;3.22;;;30.60;64.60;;;;;;5037460;28;20913;-75
2022/08/20 08:29:18;;;;;;;6.95;3.05;;;30.70;64.30;;;;;;5041973;28;20206;-75
2022/08/20 08:31:48;;;;;;;8.82;3.50;;;30.70;63.80;;;;;;5035798;28;20270;-76
2022/08/20 08:34:16;;;;;;;8.65;3.20;;;30.70;62.80;;;;;;5044636;28;20571;-76
2022/08/20 08:36:45;;;;;;;5.53;2.80;;;30.80;63.00;;;;;;5043377;28;20223;-77
2022/08/20 08:39:13;;;;;;;6.53;3.13;;;30.80;63.00;;;;;;5035032;28;20572;-76
2022/08/20 08:41:48;;;;;;;5.78;2.85;;;30.90;63.10;;;;;;5042963;28;20199;-77
2022/08/20 08:44:23;;;;;;;6.75;2.92;;;30.90;62.70;;;;;;5035757;28;20191;-76
2022/08/20 08:46:56;;;;;;;7.68;2.70;;;31.00;62.90;;;;;;5037565;28;20282;-74
2022/08/20 08:49:31;;;;;;;7.82;2.95;;;31.00;62.20;;;;;;5040895;28;20229;-77
2022/08/20 08:52:11;;;;;;;5.45;2.90;;;31.10;61.70;;;;;;5036836;28;20217;-76
2022/08/20 08:54:43;;;;;;;7.30;3.03;;;31.20;61.30;;;;;;5038029;28;20198;-74
2022/08/20 08:57:12;;;;;;;9.00;3.33;;;31.20;61.30;;;;;;5038365;28;20215;-76
2022/08/20 08:59:40;;;;;;;5.43;3.10;;;31.30;61.40;;;;;;5042207;28;20198;-75
2022/08/20 09:02:31;;;;;;;12.50;3.17;;;31.30;61.00;;;;;;5031683;28;20664;-74
2022/08/20 09:05:02;;;;;;;5.60;2.90;;;31.40;60.20;;;;;;5037446;28;20187;-76
2022/08/20 09:07:33;;;;;;;10.30;3.10;;;31.40;59.80;;;;;;5035577;28;20207;-74
2022/08/20 09:10:02;;;;;;;8.38;3.05;;;31.50;59.00;;;;;;5038624;28;20634;-74
2022/08/20 09:12:31;;;;;;;8.45;3.50;;;31.50;59.20;;;;;;5038743;28;20199;-75
2022/08/20 09:15:00;;;;;;;11.90;4.53;;;31.60;59.40;;;;;;5031383;28;20505;-74
2022/08/20 09:17:31;;;;;;;6.93;3.03;;;31.70;59.70;;;;;;5037595;28;20219;-75
2022/08/20 09:19:59;;;;;;;9.20;3.67;;;31.70;59.60;;;;;;5037818;28;20191;-75
2022/08/20 09:22:28;;;;;;;8.43;3.50;;;31.70;58.90;;;;;;5041570;28;20210;-75
2022/08/20 09:24:57;;;;;;;9.77;3.70;;;31.80;59.30;;;;;;5034839;28;20874;-75
2022/08/20 09:27:26;;;;;;;8.73;3.45;;;31.80;59.00;;;;;;5040050;28;20195;-75
2022/08/20 09:29:55;;;;;;;12.70;4.00;;;31.80;59.00;;;;;;5038065;28;20209;-75
2022/08/20 09:32:24;;;;;;;7.95;3.22;;;31.90;59.20;;;;;;5041570;28;20198;-76
2022/08/20 09:34:57;;;;;;;8.20;3.70;;;32.00;59.30;;;;;;5040566;28;20289;-75
2022/08/20 09:37:28;;;;;;;12.30;3.55;;;32.10;59.10;;;;;;5034185;28;20213;-76
2022/08/20 09:40:05;;;;;;;8.50;3.63;;;32.10;59.00;;;;;;5042902;28;20201;-76
2022/08/20 09:42:35;;;;;;;10.85;3.25;;;32.10;59.10;;;;;;5036550;28;20195;-76
2022/08/20 09:45:10;;;;;;;10.32;3.10;;;32.10;59.10;;;;;;5033318;28;20289;-77
2022/08/20 09:47:41;;;;;;;9.45;3.30;;;32.20;58.80;;;;;;5034198;28;20199;-74
2022/08/20 09:50:25;;;;;;;7.20;2.85;;;32.20;58.80;;;;;;5000254;28;20190;-76
2022/08/20 09:52:55;;;;;;;6.85;3.70;;;32.30;59.00;;;;;;5038848;28;20871;-76
2022/08/20 09:55:32;;;;;;;10.55;4.38;;;32.30;58.80;;;;;;5037071;28;20704;-76
2022/08/20 09:58:02;;;;;;;10.55;3.20;;;32.30;58.80;;;;;;5039392;28;20229;-79
2022/08/20 10:00:31;;;;;;;12.40;3.67;;;32.40;58.80;;;;;;5037639;28;20238;-75
2022/08/20 10:03:02;;;;;;;7.53;3.63;;;32.40;58.10;;;;;;5032955;28;20203;-75
2022/08/20 10:05:32;;;;;;;15.68;3.65;;;32.50;58.20;;;;;;5037786;28;20210;-74
2022/08/20 10:08:00;;;;;;;5.45;3.22;;;32.50;58.00;;;;;;5030532;28;20201;-75
2022/08/20 10:10:28;;;;;;;8.10;3.45;;;32.60;57.90;;;;;;5035555;28;20241;-74
2022/08/20 10:12:57;;;;;;;7.70;3.28;;;32.60;57.90;;;;;;5024527;28;20214;-78
2022/08/20 10:15:29;;;;;;;6.78;2.95;;;32.70;57.80;;;;;;5030313;28;20767;-80
2022/08/20 10:17:57;;;;;;;10.70;3.10;;;32.80;57.10;;;;;;5031275;28;20207;-76
2022/08/20 10:20:26;;;;;;;7.07;3.13;;;32.70;56.60;;;;;;5039928;28;20282;-76
2022/08/20 10:22:55;;;;;;;10.20;3.30;;;32.80;55.90;;;;;;5036380;28;20206;-77
2022/08/20 10:25:24;;;;;;;8.50;3.88;;;32.90;56.00;;;;;;5036523;28;20194;-76
2022/08/20 10:27:52;;;;;;;12.13;3.25;;;32.90;56.40;;;;;;5036857;28;20202;-77
2022/08/20 10:30:21;;;;;;;7.70;3.13;;;32.90;56.00;;;;;;5039851;28;20199;-76
2022/08/20 10:32:49;;;;;;;10.30;3.40;;;33.00;56.10;;;;;;5042495;28;20202;-76
2022/08/20 10:35:18;;;;;;;10.43;3.17;;;33.10;56.30;;;;;;5041556;28;20203;-76
2022/08/20 10:37:47;;;;;;;7.55;3.30;;;33.10;56.10;;;;;;5036684;28;20870;-77
2022/08/20 10:40:17;;;;;;;9.20;2.83;;;33.20;56.10;;;;;;5023338;28;20711;-78
2022/08/20 10:42:46;;;;;;;4.43;2.60;;;33.20;55.70;;;;;;5027781;28;20199;-76
2022/08/20 10:45:16;;;;;;;10.82;4.68;;;33.30;55.40;;;;;;5035711;28;20199;-77
2022/08/20 10:47:45;;;;;;;6.20;3.40;;;33.30;55.40;;;;;;5042136;28;20200;-79
2022/08/20 10:50:15;;;;;;;20.13;9.13;;;33.30;55.30;;;;;;5043539;28;20199;-77
2022/08/20 10:52:47;;;;;;;7.47;3.40;;;33.30;54.90;;;;;;5042659;28;20672;-79
2022/08/20 10:55:17;;;;;;;9.77;3.70;;;33.30;54.00;;;;;;5040836;28;20217;-79
2022/08/20 10:57:48;;;;;;;6.70;3.30;;;33.40;54.40;;;;;;5037645;28;20237;-79
2022/08/20 11:00:19;;;;;;;7.22;3.10;;;33.40;54.30;;;;;;5036606;28;20198;-77
2022/08/20 11:02:47;;;;;;;14.05;3.58;;;33.50;54.40;;;;;;5028028;28;20431;-77
2022/08/20 11:05:19;;;;;;;6.90;3.10;;;33.50;53.70;;;;;;5042637;28;20587;-76
2022/08/20 11:07:47;;;;;;;8.10;3.58;;;33.60;53.90;;;;;;5040696;28;20187;-77
2022/08/20 11:10:30;;;;;;;11.00;3.42;;;33.60;53.90;;;;;;5038078;28;20274;-77
2022/08/20 11:12:58;;;;;;;5.85;3.13;;;33.60;55.10;;;;;;5033105;28;20587;-78
2022/08/20 11:15:27;;;;;;;5.72;3.08;;;33.60;54.20;;;;;;5034866;28;20195;-76
2022/08/20 11:17:55;;;;;;;7.47;3.25;;;33.70;54.40;;;;;;5038872;28;20802;-75
2022/08/20 11:20:26;;;;;;;15.45;3.05;;;33.80;54.10;;;;;;5039433;28;20199;-76
2022/08/20 11:22:55;;;;;;;10.55;3.35;;;33.80;53.90;;;;;;5041451;28;20192;-77
2022/08/20 11:25:24;;;;;;;9.05;3.15;;;33.80;53.80;;;;;;5040332;28;20202;-79
2022/08/20 11:27:57;;;;;;;12.02;2.83;;;33.90;53.90;;;;;;5033887;28;20183;-78
2022/08/20 11:30:29;;;;;;;8.60;3.47;;;33.90;53.50;;;;;;5039277;28;20227;-78
2022/08/20 11:32:58;;;;;;;9.73;3.60;;;33.90;53.40;;;;;;5031522;28;20188;-78
2022/08/20 11:35:28;;;;;;;6.82;3.70;;;34.00;53.50;;;;;;5031879;28;20200;-76
2022/08/20 11:38:17;;;;;;;8.93;3.70;;;34.00;53.60;;;;;;5029485;28;20755;-77
2022/08/20 11:40:46;;;;;;;6.68;3.05;;;34.00;53.10;;;;;;5037151;28;20206;-77
2022/08/20 11:43:16;;;;;;;11.98;3.10;;;34.10;53.60;;;;;;5034607;28;20199;-77
2022/08/20 11:45:49;;;;;;;6.18;3.28;;;34.10;53.80;;;;;;5040188;28;20243;-75
2022/08/20 11:48:17;;;;;;;5.80;3.25;;;34.10;53.40;;;;;;5038687;28;20831;-76
2022/08/20 11:50:46;;;;;;;11.57;3.00;;;34.20;53.40;;;;;;5039469;28;20193;-78
2022/08/20 11:53:15;;;;;;;12.68;3.83;;;34.30;53.90;;;;;;5034595;28;20238;-78
2022/08/20 11:55:44;;;;;;;7.00;3.20;;;34.30;53.00;;;;;;5034739;28;20202;-78
2022/08/20 11:58:13;;;;;;;5.35;3.10;;;34.30;52.90;;;;;;5035492;28;20231;-78
2022/08/20 12:00:42;;;;;;;7.78;3.42;;;34.40;52.80;;;;;;5039735;28;20245;-81
2022/08/20 12:03:14;;;;;;;10.18;3.35;;;34.40;51.90;;;;;;5033523;28;20196;-77
2022/08/20 12:05:45;;;;;;;6.88;3.08;;;34.40;51.80;;;;;;5035781;28;20191;-78
2022/08/20 12:08:15;;;;;;;7.65;2.97;;;34.40;52.20;;;;;;5040748;28;20667;-76
2022/08/20 12:10:56;;;;;;;10.98;3.88;;;34.40;52.20;;;;;;5031001;28;20195;-78
2022/08/20 12:13:24;;;;;;;7.35;3.20;;;34.40;52.00;;;;;;5029372;28;20210;-78
2022/08/20 12:16:14;;;;;;;8.98;2.85;;;34.50;52.00;;;;;;5035295;28;20261;-76
2022/08/20 12:18:43;;;;;;;4.95;2.80;;;34.50;51.80;;;;;;5028267;28;20227;-77
2022/08/20 12:21:12;;;;;;;7.20;2.95;;;34.50;51.40;;;;;;5041257;28;20202;-78
2022/08/20 12:23:40;;;;;;;7.18;3.45;;;34.50;51.60;;;;;;5041466;28;20199;-77
2022/08/20 12:26:08;;;;;;;6.70;2.97;;;34.60;51.80;;;;;;5027196;28;20205;-77
2022/08/20 12:28:37;;;;;;;7.80;2.70;;;34.60;51.50;;;;;;5039263;28;20925;-77
2022/08/20 12:31:06;;;;;;;8.48;3.08;;;34.60;51.50;;;;;;5038958;28;20195;-77
2022/08/20 12:33:36;;;;;;;6.72;3.20;;;34.60;51.10;;;;;;5042480;28;20213;-77
2022/08/20 12:36:04;;;;;;;8.95;3.20;;;34.60;51.80;;;;;;5037439;28;20195;-76
2022/08/20 12:38:34;;;;;;;9.65;3.40;;;34.70;51.10;;;;;;5033774;28;20223;-76
2022/08/20 12:41:03;;;;;;;9.88;3.80;;;34.70;51.10;;;;;;5036864;28;20657;-75
2022/08/20 12:43:39;;;;;;;9.82;3.42;;;34.70;51.10;;;;;;5019849;28;20971;-75
2022/08/20 12:46:11;;;;;;;8.77;3.55;;;34.70;51.10;;;;;;5036364;28;20197;-75
2022/08/20 12:48:41;;;;;;;7.00;2.97;;;34.70;51.10;;;;;;5043106;28;20270;-76
2022/08/20 12:51:10;;;;;;;7.00;2.70;;;34.70;51.20;;;;;;5037523;28;20203;-77
2022/08/20 12:53:39;;;;;;;9.63;3.50;;;34.80;50.90;;;;;;5036859;28;20195;-76
2022/08/20 12:56:07;;;;;;;8.15;3.20;;;34.80;50.50;;;;;;5031981;28;20199;-75
2022/08/20 12:58:36;;;;;;;7.45;3.20;;;34.80;50.10;;;;;;5036221;28;20215;-75
2022/08/20 13:01:04;;;;;;;7.15;3.40;;;34.80;50.20;;;;;;5035129;28;20210;-75
2022/08/20 13:03:33;;;;;;;6.63;2.90;;;34.80;50.30;;;;;;5040398;28;20206;-76
2022/08/20 13:06:11;;;;;;;7.10;2.95;;;34.80;50.20;;;;;;5034156;28;20223;-76
2022/08/20 13:08:40;;;;;;;16.15;7.95;;;34.80;50.30;;;;;;5038789;28;20191;-77
2022/08/20 13:11:08;;;;;;;5.70;2.50;;;34.80;50.10;;;;;;5036415;28;20277;-75